createdAt,value
2017-06-28T00:00:38.588Z,93.70
2017-06-28T00:03:06.741Z,93.90
2017-06-28T00:05:34.895Z,93.80
2017-06-28T00:08:03.087Z,94.00
2017-06-28T00:10:31.521Z,94.10
2017-06-28T00:12:59.685Z,94.30
2017-06-28T00:15:27.841Z,94.50
2017-06-28T00:17:56.017Z,94.60
2017-06-28T00:20:24.155Z,94.60
2017-06-28T00:22:52.721Z,94.60
2017-06-28T00:25:20.877Z,94.60
2017-06-28T00:27:49.094Z,94.60
2017-06-28T00:30:17.227Z,94.90
2017-06-28T00:32:45.370Z,94.80
2017-06-28T00:35:13.814Z,94.80
2017-06-28T00:37:41.963Z,94.90
2017-06-28T00:40:10.157Z,95.00
2017-06-28T00:42:38.376Z,95.10
2017-06-28T00:45:06.520Z,94.90
2017-06-28T00:47:34.965Z,94.80
2017-06-28T00:50:03.110Z,94.80
2017-06-28T00:52:31.252Z,94.90
2017-06-28T00:54:59.425Z,94.90
2017-06-28T00:57:27.653Z,94.60
2017-06-28T00:59:56.066Z,94.80
2017-06-28T01:02:24.317Z,94.60
2017-06-28T01:04:52.529Z,94.80
2017-06-28T01:07:20.675Z,94.90
2017-06-28T01:09:48.902Z,94.90
2017-06-28T01:12:17.050Z,94.80
2017-06-28T01:14:45.196Z,94.70
2017-06-28T01:17:13.640Z,94.50
2017-06-28T01:19:41.806Z,94.60
2017-06-28T01:22:09.948Z,94.30
2017-06-28T01:24:38.138Z,94.50
2017-06-28T01:27:06.316Z,94.70
2017-06-28T01:29:34.742Z,94.60
2017-06-28T01:32:02.885Z,94.70
2017-06-28T01:34:31.030Z,94.80
2017-06-28T01:36:59.241Z,94.80
2017-06-28T01:39:27.415Z,94.90
2017-06-28T01:41:56.198Z,95.00
2017-06-28T01:44:24.343Z,95.00
2017-06-28T01:46:52.906Z,95.10
2017-06-28T01:49:21.089Z,95.50
2017-06-28T01:51:49.223Z,95.20
2017-06-28T01:54:17.670Z,95.10
2017-06-28T01:56:45.837Z,95.20
2017-06-28T01:59:13.978Z,95.50
2017-06-28T02:01:42.234Z,95.60
2017-06-28T02:04:10.382Z,95.50
2017-06-28T02:06:38.882Z,95.60
2017-06-28T02:09:07.016Z,95.80
2017-06-28T02:11:35.198Z,95.50
2017-06-28T02:14:03.362Z,95.50
2017-06-28T02:16:31.496Z,95.40
2017-06-28T02:19:00.026Z,95.70
2017-06-28T02:21:28.157Z,95.50
2017-06-28T02:23:56.299Z,95.30
2017-06-28T02:26:24.832Z,95.50
2017-06-28T02:28:52.945Z,95.60
2017-06-28T02:31:21.063Z,95.60
2017-06-28T02:33:49.501Z,95.60
2017-06-28T02:36:17.629Z,95.70
2017-06-28T02:38:45.813Z,95.60
2017-06-28T02:41:13.935Z,95.50
2017-06-28T02:43:42.077Z,95.20
2017-06-28T02:46:10.474Z,95.00
2017-06-28T02:48:38.593Z,95.00
2017-06-28T02:51:06.723Z,95.00
2017-06-28T02:53:35.139Z,94.80
2017-06-28T02:56:03.274Z,95.00
2017-06-28T02:58:31.776Z,94.70
2017-06-28T03:01:00.004Z,94.80
2017-06-28T03:03:28.137Z,94.60
2017-06-28T03:05:56.657Z,94.50
2017-06-28T03:08:24.761Z,94.60
2017-06-28T03:10:52.858Z,94.60
2017-06-28T03:13:21.269Z,94.70
2017-06-28T03:15:49.420Z,94.30
2017-06-28T03:18:17.562Z,94.20
2017-06-28T03:20:46.068Z,94.10
2017-06-28T03:23:14.197Z,94.30
2017-06-28T03:25:42.352Z,94.30
2017-06-28T03:28:10.774Z,94.20
2017-06-28T03:30:38.926Z,94.10
2017-06-28T03:33:07.039Z,94.20
2017-06-28T03:35:35.504Z,94.20
2017-06-28T03:38:03.660Z,94.30
2017-06-28T03:40:31.793Z,94.60
2017-06-28T03:43:00.233Z,94.40
2017-06-28T03:45:28.378Z,94.50
2017-06-28T03:47:56.490Z,94.40
2017-06-28T03:50:24.993Z,94.60
2017-06-28T03:52:53.211Z,94.20
2017-06-28T03:55:21.463Z,94.40
2017-06-28T03:57:49.999Z,94.10
2017-06-28T04:00:18.119Z,94.70
2017-06-28T04:02:46.265Z,94.20
2017-06-28T04:05:14.776Z,94.10
2017-06-28T04:07:43.027Z,94.30
2017-06-28T04:10:11.159Z,94.50
2017-06-28T04:12:39.683Z,94.10
2017-06-28T04:15:07.811Z,93.90
2017-06-28T04:17:35.921Z,93.80
2017-06-28T04:20:04.361Z,93.60
2017-06-28T04:22:32.499Z,93.70
2017-06-28T04:25:00.661Z,93.90
2017-06-28T04:27:29.222Z,93.80
2017-06-28T04:29:57.385Z,93.50
2017-06-28T04:32:25.532Z,93.30
2017-06-28T04:34:53.959Z,93.10
2017-06-28T04:37:22.113Z,93.00
2017-06-28T04:39:50.267Z,92.80
2017-06-28T04:42:18.754Z,93.00
2017-06-28T04:44:46.878Z,93.00
2017-06-28T04:47:15.106Z,92.90
2017-06-28T04:49:43.605Z,93.20
2017-06-28T04:52:11.746Z,92.80
2017-06-28T04:54:39.867Z,92.90
2017-06-28T04:57:08.378Z,92.70
2017-06-28T04:59:36.508Z,93.00
2017-06-28T05:02:04.629Z,92.50
2017-06-28T05:04:33.057Z,92.30
2017-06-28T05:07:01.182Z,92.20
2017-06-28T05:09:29.325Z,92.20
2017-06-28T05:11:57.780Z,92.10
2017-06-28T05:14:25.908Z,92.00
2017-06-28T05:16:54.057Z,91.80
2017-06-28T05:19:22.593Z,91.80
2017-06-28T05:21:50.742Z,92.00
2017-06-28T05:24:18.860Z,92.10
2017-06-28T05:26:47.345Z,92.00
2017-06-28T05:29:15.448Z,91.80
2017-06-28T05:31:43.599Z,91.70
2017-06-28T05:34:12.095Z,92.00
2017-06-28T05:36:40.216Z,91.70
2017-06-28T05:39:08.357Z,91.30
2017-06-28T05:41:36.779Z,91.20
2017-06-28T05:44:04.925Z,91.20
2017-06-28T05:46:33.188Z,91.00
2017-06-28T05:49:01.675Z,90.80
2017-06-28T05:51:29.797Z,90.70
2017-06-28T05:53:57.929Z,90.70
2017-06-28T05:56:26.447Z,91.10
2017-06-28T05:58:54.598Z,91.20
2017-06-28T06:01:22.756Z,91.00
2017-06-28T06:03:50.983Z,90.90
2017-06-28T06:06:19.201Z,90.70
2017-06-28T06:08:47.711Z,90.80
2017-06-28T06:11:15.906Z,90.80
2017-06-28T06:13:44.044Z,90.90
2017-06-28T06:16:12.785Z,90.80
2017-06-28T06:18:40.927Z,90.90
2017-06-28T06:21:09.059Z,90.90
2017-06-28T06:23:37.533Z,90.80
2017-06-28T06:26:05.769Z,90.60
2017-06-28T06:28:33.914Z,90.50
2017-06-28T06:31:02.340Z,90.50
2017-06-28T06:33:30.491Z,90.60
2017-06-28T06:35:58.695Z,90.30
2017-06-28T06:38:27.194Z,90.00
2017-06-28T06:40:55.446Z,90.20
2017-06-28T06:43:23.591Z,89.90
2017-06-28T06:45:52.077Z,90.30
2017-06-28T06:48:20.217Z,90.50
2017-06-28T06:50:48.349Z,89.60
2017-06-28T06:53:16.768Z,89.40
2017-06-28T06:55:44.903Z,89.10
2017-06-28T06:58:13.139Z,88.80
2017-06-28T07:00:41.536Z,89.20
2017-06-28T07:03:09.646Z,87.70
2017-06-28T07:05:37.786Z,87.80
2017-06-28T07:08:06.318Z,87.40
2017-06-28T07:10:34.458Z,87.70
2017-06-28T07:13:02.700Z,87.00
2017-06-28T07:15:31.120Z,86.10
2017-06-28T07:17:59.222Z,85.70
2017-06-28T07:20:27.341Z,83.80
2017-06-28T07:22:55.486Z,83.40
2017-06-28T07:25:23.700Z,83.00
2017-06-28T07:27:52.214Z,82.70
2017-06-28T07:30:20.396Z,80.90
2017-06-28T07:32:48.646Z,79.00
2017-06-28T07:35:17.126Z,77.80
2017-06-28T07:37:45.265Z,77.40
2017-06-28T07:40:13.411Z,77.60
2017-06-28T07:42:42.545Z,76.00
2017-06-28T07:45:10.743Z,74.20
2017-06-28T07:47:38.961Z,74.20
2017-06-28T07:50:08.212Z,75.00
2017-06-28T07:52:36.412Z,73.40
2017-06-28T07:55:04.587Z,71.30
2017-06-28T07:57:32.999Z,70.20
2017-06-28T08:00:01.162Z,70.90
2017-06-28T08:02:29.300Z,70.10
2017-06-28T08:04:57.810Z,69.20
2017-06-28T08:07:26.027Z,67.90
2017-06-28T08:09:54.161Z,68.20
2017-06-28T08:12:22.584Z,67.90
2017-06-28T08:14:50.758Z,67.20
2017-06-28T08:17:18.882Z,67.30
2017-06-28T08:19:47.410Z,67.60
2017-06-28T08:22:15.570Z,67.40
2017-06-28T08:24:43.715Z,66.80
2017-06-28T08:27:12.279Z,66.50
2017-06-28T08:29:40.412Z,65.40
2017-06-28T08:32:08.667Z,63.90
2017-06-28T08:34:36.863Z,63.70
2017-06-28T08:37:05.003Z,60.50
2017-06-28T08:39:33.417Z,59.00
2017-06-28T08:42:01.541Z,59.00
2017-06-28T08:44:30.517Z,59.50
2017-06-28T08:46:58.968Z,58.70
2017-06-28T08:49:27.070Z,59.20
2017-06-28T08:51:55.209Z,60.40
2017-06-28T08:54:23.700Z,58.80
2017-06-28T08:56:51.831Z,58.50
2017-06-28T08:59:19.940Z,57.90
2017-06-28T09:01:48.431Z,59.10
2017-06-28T09:04:16.536Z,59.50
2017-06-28T09:06:44.699Z,58.50
2017-06-28T09:09:13.128Z,57.70
2017-06-28T09:11:41.330Z,57.40
2017-06-28T09:14:09.485Z,56.60
2017-06-28T09:16:37.910Z,56.10
2017-06-28T09:19:06.032Z,56.60
2017-06-28T09:21:34.189Z,56.90
2017-06-28T09:24:02.793Z,57.00
2017-06-28T09:26:31.019Z,56.90
2017-06-28T09:28:59.156Z,56.40
2017-06-28T09:31:27.572Z,55.80
2017-06-28T09:33:55.696Z,55.60
2017-06-28T09:36:23.859Z,55.40
2017-06-28T09:38:52.290Z,55.80
2017-06-28T09:41:20.526Z,55.30
2017-06-28T09:43:48.701Z,55.50
2017-06-28T09:46:17.200Z,54.50
2017-06-28T09:48:45.468Z,54.20
2017-06-28T09:51:13.636Z,55.50
2017-06-28T09:53:42.192Z,55.10
2017-06-28T09:56:10.320Z,55.60
2017-06-28T09:58:38.479Z,55.40
2017-06-28T10:01:06.992Z,55.00
2017-06-28T10:03:36.179Z,55.60
2017-06-28T10:06:04.410Z,56.40
2017-06-28T10:08:32.910Z,57.30
2017-06-28T10:11:01.047Z,56.90
2017-06-28T10:13:29.188Z,55.90
2017-06-28T10:15:57.706Z,56.50
2017-06-28T10:18:25.873Z,56.70
2017-06-28T10:20:54.030Z,56.80
2017-06-28T10:23:23.133Z,57.60
2017-06-28T10:25:51.453Z,57.60
2017-06-28T10:28:19.660Z,56.80
2017-06-28T10:30:48.218Z,55.60
2017-06-28T10:33:16.453Z,55.70
2017-06-28T10:35:45.199Z,55.50
2017-06-28T10:38:13.646Z,54.80
2017-06-28T10:40:41.916Z,52.90
2017-06-28T10:43:10.214Z,52.50
2017-06-28T10:45:38.799Z,51.30
2017-06-28T10:48:07.178Z,50.70
2017-06-28T10:50:35.568Z,52.50
2017-06-28T10:53:04.189Z,53.00
2017-06-28T10:55:32.382Z,53.00
2017-06-28T10:58:00.575Z,51.60
2017-06-28T11:00:29.203Z,51.70
2017-06-28T11:02:57.380Z,51.50
2017-06-28T11:05:25.518Z,51.60
2017-06-28T11:07:53.953Z,51.60
2017-06-28T11:10:22.098Z,50.80
2017-06-28T11:12:50.254Z,51.60
2017-06-28T11:15:18.749Z,50.80
2017-06-28T11:17:46.891Z,50.50
2017-06-28T11:20:15.054Z,51.00
2017-06-28T11:22:43.516Z,52.10
2017-06-28T11:25:11.650Z,51.40
2017-06-28T11:27:39.882Z,51.20
2017-06-28T11:30:08.443Z,51.30
2017-06-28T11:32:36.568Z,51.00
2017-06-28T11:35:04.695Z,51.70
2017-06-28T11:37:33.154Z,50.60
2017-06-28T11:40:01.284Z,50.70
2017-06-28T11:42:29.535Z,51.10
2017-06-28T11:44:57.717Z,51.80
2017-06-28T11:47:26.915Z,52.30
2017-06-28T11:49:55.560Z,52.40
2017-06-28T11:52:23.791Z,52.70
2017-06-28T11:54:51.939Z,51.90
2017-06-28T11:57:20.390Z,52.00
2017-06-28T11:59:48.519Z,51.10
2017-06-28T12:02:16.670Z,51.60
2017-06-28T12:04:45.334Z,51.10
2017-06-28T12:07:13.550Z,50.70
2017-06-28T12:09:41.722Z,50.40
2017-06-28T12:12:10.339Z,50.40
2017-06-28T12:14:38.581Z,50.00
2017-06-28T12:17:06.809Z,49.80
2017-06-28T12:19:35.268Z,49.50
2017-06-28T12:22:03.387Z,50.00
2017-06-28T12:24:31.504Z,50.20
2017-06-28T12:27:00.147Z,50.00
2017-06-28T12:29:28.354Z,50.10
2017-06-28T12:31:56.472Z,50.60
2017-06-28T12:34:25.072Z,51.00
2017-06-28T12:36:53.247Z,50.40
2017-06-28T12:39:21.368Z,50.70
2017-06-28T12:41:49.831Z,50.60
2017-06-28T12:44:18.036Z,51.10
2017-06-28T12:46:46.181Z,51.60
2017-06-28T12:49:14.398Z,52.30
2017-06-28T12:51:42.530Z,52.10
2017-06-28T12:54:11.113Z,51.90
2017-06-28T12:56:39.422Z,52.10
2017-06-28T12:59:07.679Z,51.90
2017-06-28T13:01:36.168Z,52.70
2017-06-28T13:04:04.378Z,52.20
2017-06-28T13:06:32.514Z,51.90
2017-06-28T13:09:01.132Z,52.70
2017-06-28T13:11:29.535Z,52.40
2017-06-28T13:13:57.850Z,52.50
2017-06-28T13:16:26.386Z,52.80
2017-06-28T13:18:54.562Z,52.90
2017-06-28T13:21:22.756Z,52.60
2017-06-28T13:23:51.273Z,52.70
2017-06-28T13:26:19.521Z,53.30
2017-06-28T13:28:47.657Z,53.20
2017-06-28T13:31:27.698Z,53.10
2017-06-28T13:34:03.411Z,54.20
2017-06-28T13:36:32.140Z,53.60
2017-06-28T13:39:00.322Z,53.20
2017-06-28T13:41:28.512Z,53.60
2017-06-28T13:43:56.670Z,54.30
2017-06-28T13:46:24.833Z,54.90
2017-06-28T13:48:53.281Z,55.20
2017-06-28T13:51:21.408Z,55.00
2017-06-28T13:53:49.747Z,56.40
2017-06-28T13:56:17.965Z,56.90
2017-06-28T13:58:46.674Z,57.50
2017-06-28T14:01:22.844Z,57.00
2017-06-28T14:03:51.159Z,57.20
2017-06-28T14:06:19.349Z,56.50
2017-06-28T14:08:47.859Z,57.40
2017-06-28T14:11:15.977Z,58.00
2017-06-28T14:13:44.119Z,58.40
2017-06-28T14:16:12.625Z,58.70
2017-06-28T14:18:40.744Z,59.20
2017-06-28T14:21:08.902Z,59.90
2017-06-28T14:23:37.444Z,59.90
2017-06-28T14:26:05.555Z,60.90
2017-06-28T14:28:33.671Z,60.40
2017-06-28T14:31:02.213Z,60.80
2017-06-28T14:33:30.365Z,61.10
2017-06-28T14:35:58.514Z,61.20
2017-06-28T14:38:26.788Z,61.20
2017-06-28T14:40:55.145Z,62.30
2017-06-28T14:43:24.082Z,62.40
2017-06-28T14:45:52.235Z,62.40
2017-06-28T14:48:20.437Z,62.70
2017-06-28T14:50:48.948Z,62.90
2017-06-28T14:53:17.115Z,63.80
2017-06-28T14:55:45.213Z,63.60
2017-06-28T14:58:13.661Z,63.10
2017-06-28T15:00:41.862Z,63.70
2017-06-28T15:03:10.059Z,64.10
2017-06-28T15:05:38.774Z,64.60
2017-06-28T15:08:06.947Z,65.90
2017-06-28T15:10:35.118Z,66.20
2017-06-28T15:13:03.658Z,67.20
2017-06-28T15:15:31.781Z,67.90
2017-06-28T15:17:59.922Z,67.80
2017-06-28T15:20:28.479Z,68.10
2017-06-28T15:22:56.787Z,68.10
2017-06-28T15:25:25.012Z,69.20
2017-06-28T15:27:53.255Z,69.70
2017-06-28T15:30:21.918Z,70.00
2017-06-28T15:32:50.433Z,70.30
2017-06-28T15:35:18.572Z,71.40
2017-06-28T15:37:46.688Z,70.80
2017-06-28T15:40:15.189Z,70.80
2017-06-28T15:42:43.321Z,70.30
2017-06-28T15:45:11.441Z,70.80
2017-06-28T15:47:39.894Z,71.00
2017-06-28T15:50:08.019Z,71.60
2017-06-28T15:52:36.136Z,71.30
2017-06-28T15:55:04.618Z,71.00
2017-06-28T15:57:32.775Z,70.90
2017-06-28T16:00:00.887Z,70.50
2017-06-28T16:02:29.050Z,71.40
2017-06-28T16:04:57.173Z,70.80
2017-06-28T16:07:25.625Z,71.00
2017-06-28T16:09:53.762Z,70.90
2017-06-28T16:12:21.991Z,70.80
2017-06-28T16:14:50.440Z,70.90
2017-06-28T16:17:18.548Z,71.60
2017-06-28T16:19:46.657Z,71.50
2017-06-28T16:22:15.054Z,71.40
2017-06-28T16:24:43.656Z,71.40
2017-06-28T16:27:11.797Z,72.20
2017-06-28T16:29:40.294Z,72.70
2017-06-28T16:32:08.417Z,73.60
2017-06-28T16:34:37.307Z,73.80
2017-06-28T16:37:05.723Z,73.90
2017-06-28T16:39:33.883Z,73.50
2017-06-28T16:42:01.994Z,73.20
2017-06-28T16:44:30.415Z,73.70
2017-06-28T16:46:58.537Z,73.40
2017-06-28T16:49:26.705Z,73.80
2017-06-28T16:51:55.140Z,73.30
2017-06-28T16:54:23.317Z,73.70
2017-06-28T16:56:51.449Z,73.00
2017-06-28T16:59:19.955Z,73.00
2017-06-28T17:01:48.118Z,73.40
2017-06-28T17:04:17.234Z,74.00
2017-06-28T17:06:45.776Z,74.80
2017-06-28T17:09:14.138Z,75.50
2017-06-28T17:11:42.302Z,76.00
2017-06-28T17:14:10.809Z,76.40
2017-06-28T17:16:38.944Z,76.40
2017-06-28T17:19:07.079Z,77.10
2017-06-28T17:21:35.496Z,77.20
2017-06-28T17:24:03.614Z,77.80
2017-06-28T17:26:31.785Z,77.60
2017-06-28T17:29:00.266Z,78.60
2017-06-28T17:31:28.472Z,78.70
2017-06-28T17:33:56.611Z,79.20
2017-06-28T17:36:25.105Z,78.30
2017-06-28T17:38:53.354Z,78.30
2017-06-28T17:41:21.503Z,78.40
2017-06-28T17:43:50.022Z,78.60
2017-06-28T17:46:18.181Z,79.00
2017-06-28T17:48:46.432Z,80.00
2017-06-28T17:51:14.856Z,80.60
2017-06-28T17:53:42.984Z,80.60
2017-06-28T17:56:11.127Z,80.80
2017-06-28T17:58:39.377Z,81.30
2017-06-28T18:01:07.520Z,81.60
2017-06-28T18:03:35.956Z,81.40
2017-06-28T18:06:04.102Z,81.70
2017-06-28T18:08:32.257Z,82.50
2017-06-28T18:11:00.801Z,82.10
2017-06-28T18:13:29.077Z,82.40
2017-06-28T18:15:57.261Z,82.60
2017-06-28T18:18:25.794Z,83.10
2017-06-28T18:20:53.942Z,83.10
2017-06-28T18:23:22.173Z,83.20
2017-06-28T18:25:50.471Z,83.50
2017-06-28T18:28:18.598Z,84.00
2017-06-28T18:30:47.905Z,84.10
2017-06-28T18:33:16.067Z,84.10
2017-06-28T18:35:45.028Z,84.40
2017-06-28T18:38:13.556Z,84.80
2017-06-28T18:40:41.737Z,85.10
2017-06-28T18:43:09.917Z,85.90
2017-06-28T18:45:38.575Z,86.10
2017-06-28T18:48:07.634Z,86.90
2017-06-28T18:50:35.776Z,87.40
2017-06-28T18:53:04.625Z,88.40
2017-06-28T18:55:33.369Z,88.40
2017-06-28T18:58:01.556Z,88.80
2017-06-28T19:00:29.702Z,88.70
2017-06-28T19:02:58.096Z,88.80
2017-06-28T19:05:26.235Z,88.70
2017-06-28T19:07:55.690Z,89.50
2017-06-28T19:10:23.903Z,89.10
2017-06-28T19:12:52.020Z,89.50
2017-06-28T19:15:20.469Z,90.00
2017-06-28T19:17:48.697Z,90.10
2017-06-28T19:20:16.845Z,90.40
2017-06-28T19:22:45.308Z,90.70
2017-06-28T19:25:13.486Z,90.80
2017-06-28T19:27:41.648Z,90.90
2017-06-28T19:30:09.880Z,90.80
2017-06-28T19:32:37.999Z,91.00
2017-06-28T19:35:06.404Z,90.90
2017-06-28T19:37:35.189Z,91.00
2017-06-28T19:40:04.111Z,91.00
2017-06-28T19:42:33.138Z,91.30
2017-06-28T19:45:01.255Z,91.60
2017-06-28T19:47:29.408Z,92.10
2017-06-28T19:49:57.967Z,92.30
2017-06-28T19:52:26.964Z,92.50
2017-06-28T19:54:55.219Z,92.60
2017-06-28T19:57:23.826Z,92.80
2017-06-28T19:59:51.962Z,92.90
2017-06-28T20:02:20.084Z,93.00
2017-06-28T20:04:48.596Z,93.40
2017-06-28T20:07:16.718Z,93.30
2017-06-28T20:09:44.847Z,93.20
2017-06-28T20:12:13.366Z,93.10
2017-06-28T20:14:41.501Z,93.20
2017-06-28T20:17:09.669Z,93.40
2017-06-28T20:19:38.133Z,93.50
2017-06-28T20:22:06.256Z,93.50
2017-06-28T20:24:34.369Z,93.60
2017-06-28T20:27:02.916Z,93.70
2017-06-28T20:29:31.195Z,93.80
2017-06-28T20:31:59.335Z,94.10
2017-06-28T20:34:27.978Z,94.10
2017-06-28T20:36:56.153Z,94.40
2017-06-28T20:39:24.471Z,94.60
2017-06-28T20:41:53.617Z,94.90
2017-06-28T20:44:21.751Z,95.20
2017-06-28T20:46:49.905Z,95.40
2017-06-28T20:49:18.400Z,96.10
2017-06-28T20:51:46.612Z,96.50
2017-06-28T20:54:14.789Z,96.40
2017-06-28T20:56:43.211Z,96.60
2017-06-28T20:59:11.449Z,97.10
2017-06-28T21:01:39.674Z,97.40
2017-06-28T21:04:08.314Z,98.40
2017-06-28T21:06:36.434Z,99.40
2017-06-28T21:09:04.647Z,99.90
2017-06-28T21:11:33.066Z,99.90
2017-06-28T21:14:01.207Z,99.90
2017-06-28T21:16:29.328Z,99.90
2017-06-28T21:18:57.774Z,99.90
2017-06-28T21:21:25.955Z,99.90
2017-06-28T21:23:54.072Z,99.90
2017-06-28T21:26:22.509Z,99.90
2017-06-28T21:28:50.657Z,99.90
2017-06-28T21:31:18.845Z,99.90
2017-06-28T21:33:47.345Z,99.90
2017-06-28T21:36:16.135Z,99.90
2017-06-28T21:38:44.290Z,99.90
2017-06-28T21:41:12.823Z,99.90
2017-06-28T21:49:25.803Z,99.90
2017-06-28T21:51:53.997Z,99.90
2017-06-28T21:54:22.793Z,99.90
2017-06-28T21:56:51.074Z,99.90
2017-06-28T21:59:19.794Z,99.90
2017-06-28T22:01:47.939Z,99.90
2017-06-28T22:04:16.089Z,99.90
2017-06-28T22:06:44.881Z,99.90
2017-06-28T22:09:13.015Z,99.90
2017-06-28T22:11:41.150Z,99.90
2017-06-28T22:14:09.298Z,99.90
2017-06-28T22:16:37.451Z,99.90
2017-06-28T22:19:30.210Z,99.90
2017-06-28T22:21:58.356Z,99.90
2017-06-28T22:24:26.492Z,99.90
2017-06-28T22:26:54.630Z,99.90
2017-06-28T22:29:22.759Z,99.90
2017-06-28T22:31:50.981Z,99.90
2017-06-28T22:34:19.134Z,99.90
2017-06-28T22:36:47.367Z,99.90
2017-06-28T22:39:15.500Z,99.90
2017-06-28T22:41:43.651Z,99.90
2017-06-28T22:44:11.794Z,99.90
2017-06-28T22:46:40.889Z,99.90
2017-06-28T22:49:09.007Z,99.90
2017-06-28T22:51:37.202Z,99.90
2017-06-28T22:54:05.383Z,99.90
2017-06-28T22:56:33.565Z,99.90
2017-06-28T22:59:01.716Z,99.90
2017-06-28T23:01:30.238Z,99.90
2017-06-28T23:03:58.418Z,99.90
2017-06-28T23:06:26.599Z,99.90
2017-06-28T23:08:54.815Z,99.90
2017-06-28T23:11:23.839Z,99.90
2017-06-28T23:13:52.007Z,99.90
2017-06-28T23:16:20.179Z,99.90
2017-06-28T23:18:48.713Z,99.90
2017-06-28T23:21:16.969Z,99.90
2017-06-28T23:23:45.117Z,99.90
2017-06-28T23:26:13.664Z,99.90
2017-06-28T23:28:41.849Z,99.90
2017-06-28T23:31:10.011Z,99.90
2017-06-28T23:33:38.186Z,99.90
2017-06-28T23:36:06.417Z,99.90
2017-06-28T23:38:34.550Z,99.90
2017-06-28T23:41:03.038Z,99.90
2017-06-28T23:43:31.262Z,99.90
2017-06-28T23:46:00.322Z,99.90
2017-06-28T23:48:28.869Z,99.90
2017-06-28T23:50:57.836Z,99.90
2017-06-28T23:53:25.986Z,99.90
2017-06-28T23:55:54.089Z,99.90
2017-06-28T23:58:22.604Z,99.90
